Ana Sayfa
METAR-TAF:

METAR-TAF

Havaalanları :

Sonora Municipal Airport

Sonora, Teksas, Amerika Birleşik Devletleri

Enlem: 30-35-08N, Boylam: 100-38-54W, yükseklik: 652 m

Güncel hava durumu gözlemi

Rapor saat 12:35 UTC de 24 dakika önce yapıldı.
Sakin rüzgar
Sıcaklık 4°C
Nem 87%
Basınç 1019 hPa
Görüş mesafesi: 16.1 km
Açık gökyüzü

METAR: KSOA 081235Z AUTO 00000KT 10SM CLR 04/02 A3008 RMK AO2

Saat: 06:59 (12:59 UTC)

Tahmin

Rapor saat 11:20 UTC de 1 saat ve 39 dakika önce yapıldı.
Ayın 08'si saat 12 UTC'den ayın 09'si saat 12 UTC'ye kadar geçerli Tahmin
Rüzgar güneydan 4 kt
Görüş mesafesi: 10 km
25000 ft yükseklikte az bulutlu
Ayın 08'si saat 1700 UTC'den
Rüzgar güney/güneybatıdan 11 kt
Görüş mesafesi: 10 km
25000 ft yükseklikte parçalı bulutlu
Ayın 09'si saat 0000 UTC'den
Rüzgar güney/güneybatıdan 5 kt
Görüş mesafesi: 10 km
25000 ft yükseklikte parçalı çok bulutlu

TAF: KSOA 081120Z 0812/0912 19004KT P6SM FEW250 FM081700 20011KT P6SM SCT250 FM090000 20005KT P6SM BKN250

4.000'den fazla havaalanı için hava durumu gözlemleri ve tahminleri (METAR ve TAF raporları).

Kullanılabilir istasyonlar harita üzerinde sarı ve kırmızı noktalarla gösterilir.

İstasyonun adını görmek için fareyi noktanın üzerinde gezdirin.

Sonrasında hava gözlem ve tahminlerini görmek için tıklayın.

Haritayı değiştirmek için: yaklaştırmak için siyah artı işaretli yeşil düğmeye ve uzaklaştırmak için de eksi işaretli düğmeye hızla tıklayın; bitişik haritalar için yeşil okları kullanın.


METAR-TAF: